createdAt,value
2023-04-25T00:01:57.682Z,19.87
2023-04-25T00:04:24.594Z,17.50
2023-04-25T00:06:51.219Z,14.93
2023-04-25T00:09:17.594Z,15.40
2023-04-25T00:11:44.045Z,15.23
2023-04-25T00:14:10.930Z,15.80
2023-04-25T00:16:37.783Z,14.33
2023-04-25T00:19:04.386Z,10.33
2023-04-25T00:21:32.442Z,19.90
2023-04-25T00:23:59.421Z,12.03
2023-04-25T00:26:26.309Z,15.07
2023-04-25T00:28:52.954Z,14.30
2023-04-25T00:31:19.482Z,17.00
2023-04-25T00:33:46.100Z,17.83
2023-04-25T00:36:12.708Z,15.47
2023-04-25T00:38:39.282Z,14.23
2023-04-25T00:41:08.396Z,15.43
2023-04-25T00:43:34.887Z,15.67
2023-04-25T00:46:02.250Z,15.57
2023-04-25T00:48:29.144Z,19.27
2023-04-25T00:50:58.642Z,16.30
2023-04-25T00:53:28.766Z,17.47
2023-04-25T00:55:56.093Z,14.07
2023-04-25T00:58:23.171Z,15.40
2023-04-25T01:00:52.889Z,15.80
2023-04-25T01:03:23.541Z,12.13
2023-04-25T01:05:51.374Z,16.50
2023-04-25T01:08:17.847Z,17.60
2023-04-25T01:10:44.317Z,14.67
2023-04-25T01:13:10.875Z,16.60
2023-04-25T01:15:37.381Z,16.83
2023-04-25T01:18:06.292Z,15.27
2023-04-25T01:20:34.010Z,16.43
2023-04-25T01:23:01.418Z,15.47
2023-04-25T01:25:28.425Z,15.87
2023-04-25T01:27:56.825Z,19.70
2023-04-25T01:30:23.355Z,17.43
2023-04-25T01:32:50.324Z,17.60
2023-04-25T01:35:16.781Z,17.40
2023-04-25T01:37:44.052Z,14.20
2023-04-25T01:40:13.666Z,17.60
2023-04-25T01:42:44.068Z,17.10
2023-04-25T01:45:11.998Z,18.87
2023-04-25T01:47:40.931Z,12.60
2023-04-25T01:50:08.764Z,14.33
2023-04-25T01:52:36.714Z,16.70
2023-04-25T01:55:03.735Z,16.07
2023-04-25T01:57:33.046Z,17.10
2023-04-25T02:00:03.842Z,11.57
2023-04-25T02:02:39.750Z,13.97
2023-04-25T02:05:14.564Z,17.67
2023-04-25T02:07:42.987Z,18.33
2023-04-25T02:10:10.122Z,19.13
2023-04-25T02:12:45.298Z,17.00
2023-04-25T02:15:20.165Z,14.83
2023-04-25T02:17:56.227Z,17.50
2023-04-25T02:20:24.181Z,14.63
2023-04-25T02:22:51.008Z,17.80
2023-04-25T02:25:19.041Z,14.53
2023-04-25T02:27:47.458Z,16.20
2023-04-25T02:30:14.272Z,16.43
2023-04-25T02:32:41.121Z,16.30
2023-04-25T02:35:09.722Z,24.93
2023-04-25T02:37:37.560Z,18.37
2023-04-25T02:40:05.095Z,14.63
2023-04-25T02:42:32.173Z,17.83
2023-04-25T02:44:58.845Z,19.33
2023-04-25T02:47:27.248Z,12.33
2023-04-25T02:49:53.800Z,16.13
2023-04-25T02:52:20.412Z,15.47
2023-04-25T02:54:53.842Z,18.10
2023-04-25T02:57:20.515Z,14.90
2023-04-25T02:59:47.164Z,16.77
2023-04-25T03:02:13.774Z,17.23
2023-04-25T03:04:40.788Z,18.80
2023-04-25T03:07:07.386Z,16.70
2023-04-25T03:09:33.865Z,14.93
2023-04-25T03:12:02.347Z,23.23
2023-04-25T03:14:28.831Z,13.17
2023-04-25T03:16:55.894Z,24.17
2023-04-25T03:19:22.396Z,20.83
2023-04-25T03:21:49.060Z,17.80
2023-04-25T03:24:16.106Z,14.97
2023-04-25T03:26:42.585Z,18.33
2023-04-25T03:29:09.498Z,21.97
2023-04-25T03:31:37.560Z,18.50
2023-04-25T03:34:04.072Z,20.20
2023-04-25T03:36:30.478Z,21.23
2023-04-25T03:38:57.113Z,21.13
2023-04-25T03:41:24.374Z,17.83
2023-04-25T03:44:02.377Z,16.80
2023-04-25T03:46:28.882Z,23.60
2023-04-25T03:48:56.016Z,22.00
2023-04-25T03:51:28.819Z,16.33
2023-04-25T03:53:55.559Z,21.27
2023-04-25T03:56:31.310Z,23.87
2023-04-25T03:59:05.649Z,16.53
2023-04-25T04:01:32.638Z,18.27
2023-04-25T04:03:59.372Z,24.90
2023-04-25T04:06:27.677Z,23.73
2023-04-25T04:09:02.592Z,20.53
2023-04-25T04:11:32.319Z,20.77
2023-04-25T04:13:58.884Z,24.93
2023-04-25T04:16:25.993Z,20.17
2023-04-25T04:18:52.785Z,18.90
2023-04-25T04:21:19.155Z,23.47
2023-04-25T04:23:45.832Z,23.97
2023-04-25T04:26:13.883Z,15.73
2023-04-25T04:28:57.419Z,18.97
2023-04-25T04:31:40.908Z,22.57
2023-04-25T04:34:07.406Z,18.23
2023-04-25T04:36:35.300Z,23.03
2023-04-25T04:39:02.925Z,17.50
2023-04-25T04:41:35.821Z,18.07
2023-04-25T04:44:15.700Z,17.97
2023-04-25T04:46:47.772Z,33.30
2023-04-25T04:49:46.690Z,17.83
2023-04-25T04:52:29.852Z,15.00
2023-04-25T04:55:05.362Z,17.53
2023-04-25T04:57:40.815Z,15.83
2023-04-25T05:00:42.662Z,22.40
2023-04-25T05:03:28.983Z,22.10
2023-04-25T05:06:15.210Z,20.80
2023-04-25T05:08:53.649Z,22.23
2023-04-25T05:11:36.843Z,22.27
2023-04-25T05:14:24.279Z,22.90
2023-04-25T05:17:26.543Z,16.60
2023-04-25T05:20:03.714Z,20.30
2023-04-25T05:22:44.118Z,18.87
2023-04-25T05:25:18.729Z,24.07
2023-04-25T05:28:10.055Z,14.23
2023-04-25T05:30:39.237Z,22.43
2023-04-25T05:33:17.798Z,20.73
2023-04-25T05:35:45.654Z,25.20
2023-04-25T05:38:12.283Z,19.73
2023-04-25T05:41:05.039Z,14.33
2023-04-25T05:43:50.498Z,18.93
2023-04-25T05:46:27.234Z,21.83
2023-04-25T05:49:18.961Z,15.43
2023-04-25T05:52:04.404Z,19.50
2023-04-25T05:54:49.358Z,16.63
2023-04-25T05:57:26.200Z,17.20
2023-04-25T05:59:54.604Z,22.57
2023-04-25T06:02:22.939Z,18.57
2023-04-25T06:04:52.046Z,18.40
2023-04-25T06:07:19.791Z,17.60
2023-04-25T06:09:46.417Z,21.27
2023-04-25T06:12:13.020Z,19.00
2023-04-25T06:14:39.799Z,18.20
2023-04-25T06:17:09.376Z,19.03
2023-04-25T06:19:37.192Z,17.83
2023-04-25T06:22:03.634Z,20.53
2023-04-25T06:24:31.555Z,23.53
2023-04-25T06:26:58.175Z,16.43
2023-04-25T06:29:24.864Z,17.43
2023-04-25T06:31:51.434Z,15.27
2023-04-25T06:34:18.805Z,21.10
2023-04-25T06:36:45.889Z,13.97
2023-04-25T06:39:15.472Z,16.07
2023-04-25T06:41:42.036Z,21.83
2023-04-25T06:44:16.198Z,17.10
2023-04-25T06:46:53.269Z,16.20
2023-04-25T06:49:20.271Z,13.73
2023-04-25T06:51:46.843Z,23.87
2023-04-25T06:54:14.822Z,18.37
2023-04-25T06:56:53.008Z,13.70
2023-04-25T06:59:19.879Z,14.83
2023-04-25T07:01:46.829Z,13.10
2023-04-25T07:04:21.204Z,13.43
2023-04-25T07:06:55.931Z,10.67
2023-04-25T07:09:31.211Z,14.47
2023-04-25T07:11:59.663Z,15.53
2023-04-25T07:14:27.240Z,17.70
2023-04-25T07:16:54.527Z,11.70
2023-04-25T07:19:21.049Z,21.50
2023-04-25T07:21:47.802Z,12.83
2023-04-25T07:24:14.185Z,13.40
2023-04-25T07:26:45.852Z,10.67
2023-04-25T07:29:22.279Z,19.10
2023-04-25T07:31:48.985Z,14.47
2023-04-25T07:34:15.533Z,10.90
2023-04-25T07:36:42.428Z,19.43
2023-04-25T07:39:10.093Z,14.73
2023-04-25T07:41:36.736Z,16.77
2023-04-25T07:44:03.740Z,10.07
2023-04-25T07:46:31.852Z,12.70
2023-04-25T07:48:58.669Z,14.53
2023-04-25T07:51:25.637Z,11.70
2023-04-25T07:53:54.077Z,15.43
2023-04-25T07:56:21.490Z,12.13
2023-04-25T07:58:49.374Z,13.93
2023-04-25T08:01:18.469Z,12.67
2023-04-25T08:03:53.045Z,11.23
2023-04-25T08:06:30.574Z,14.50
2023-04-25T08:09:12.627Z,11.80
2023-04-25T08:11:42.710Z,11.93
2023-04-25T08:14:12.434Z,8.67
2023-04-25T08:16:40.924Z,9.90
2023-04-25T08:19:07.333Z,8.27
2023-04-25T08:21:34.494Z,12.60
2023-04-25T08:24:04.936Z,11.53
2023-04-25T08:26:35.727Z,8.13
2023-04-25T08:29:06.446Z,9.30
2023-04-25T08:31:33.618Z,7.70
2023-04-25T08:34:02.715Z,10.70
2023-04-25T08:36:39.929Z,11.13
2023-04-25T08:39:29.774Z,12.73
2023-04-25T08:42:29.962Z,6.47
2023-04-25T08:44:57.293Z,7.37
2023-04-25T08:47:29.434Z,9.77
2023-04-25T08:49:59.059Z,6.97
2023-04-25T08:52:29.078Z,5.93
2023-04-25T08:54:56.425Z,7.23
2023-04-25T08:57:24.016Z,11.50
2023-04-25T08:59:52.919Z,8.37
2023-04-25T09:02:21.694Z,7.17
2023-04-25T09:04:50.651Z,9.03
2023-04-25T09:07:19.576Z,5.63
2023-04-25T09:09:46.229Z,6.90
2023-04-25T09:12:15.391Z,5.77
2023-04-25T09:14:43.354Z,5.77
2023-04-25T09:17:18.886Z,10.30
2023-04-25T09:19:52.046Z,6.43
2023-04-25T09:22:37.810Z,11.23
2023-04-25T09:25:09.450Z,6.50
2023-04-25T09:27:37.371Z,9.90
2023-04-25T09:30:17.175Z,7.87
2023-04-25T09:32:59.431Z,7.57
2023-04-25T09:35:27.296Z,6.90
2023-04-25T09:37:55.085Z,7.97
2023-04-25T09:40:46.135Z,8.53
2023-04-25T09:43:23.535Z,7.43
2023-04-25T09:45:52.626Z,5.63
2023-04-25T09:48:23.392Z,11.03
2023-04-25T09:51:14.488Z,12.30
2023-04-25T09:53:47.274Z,5.93
2023-04-25T09:56:23.322Z,6.87
2023-04-25T09:58:54.703Z,10.77
2023-04-25T10:01:22.558Z,8.43
2023-04-25T10:04:12.222Z,8.73
2023-04-25T10:06:56.185Z,7.70
2023-04-25T10:09:26.595Z,8.70
2023-04-25T10:11:53.932Z,7.13
2023-04-25T10:14:20.597Z,12.87
2023-04-25T10:16:48.191Z,9.13
2023-04-25T10:19:15.519Z,15.83
2023-04-25T10:21:52.160Z,9.10
2023-04-25T10:24:20.278Z,8.93
2023-04-25T10:26:48.164Z,7.67
2023-04-25T10:29:22.834Z,7.87
2023-04-25T10:31:49.309Z,7.33
2023-04-25T10:34:17.922Z,7.03
2023-04-25T10:36:50.784Z,7.63
2023-04-25T10:39:24.044Z,8.90
2023-04-25T10:41:58.951Z,10.23
2023-04-25T10:44:29.904Z,9.33
2023-04-25T10:46:58.815Z,7.53
2023-04-25T10:49:39.091Z,6.33
2023-04-25T10:52:24.836Z,6.97
2023-04-25T10:54:56.566Z,10.13
2023-04-25T10:57:42.968Z,7.97
2023-04-25T11:00:13.086Z,10.23
2023-04-25T11:02:48.370Z,10.87
2023-04-25T11:05:30.181Z,9.03
2023-04-25T11:08:07.866Z,6.63
2023-04-25T11:10:38.129Z,6.83
2023-04-25T11:13:06.037Z,4.90
2023-04-25T11:15:32.691Z,5.57
2023-04-25T11:17:59.336Z,8.67
2023-04-25T11:20:29.211Z,6.13
2023-04-25T11:22:59.390Z,7.83
2023-04-25T11:25:26.747Z,8.07
2023-04-25T11:27:58.094Z,6.83
2023-04-25T11:30:26.631Z,5.77
2023-04-25T11:32:53.369Z,6.50
2023-04-25T11:35:22.236Z,3.70
2023-04-25T11:37:48.964Z,9.13
2023-04-25T11:40:15.714Z,5.90
2023-04-25T11:42:46.912Z,8.77
2023-04-25T11:45:14.353Z,8.17
2023-04-25T11:47:41.035Z,8.27
2023-04-25T11:50:09.025Z,6.53
2023-04-25T11:52:43.877Z,10.57
2023-04-25T11:55:21.058Z,5.30
2023-04-25T11:57:52.857Z,4.97
2023-04-25T12:00:21.876Z,5.63
2023-04-25T12:02:53.112Z,7.07
2023-04-25T12:05:31.873Z,3.07
2023-04-25T12:08:10.126Z,2.87
2023-04-25T12:10:38.833Z,4.37
2023-04-25T12:13:22.819Z,5.03
2023-04-25T12:15:49.964Z,3.57
2023-04-25T12:18:20.738Z,5.13
2023-04-25T12:20:47.501Z,2.57
2023-04-25T12:23:14.040Z,2.53
2023-04-25T12:25:42.905Z,2.80
2023-04-25T12:28:20.895Z,3.13
2023-04-25T12:31:06.625Z,4.47
2023-04-25T12:33:34.830Z,3.90
2023-04-25T12:36:06.422Z,4.10
2023-04-25T12:38:37.445Z,5.23
2023-04-25T12:41:03.868Z,6.30
2023-04-25T12:43:30.405Z,6.07
2023-04-25T12:45:57.969Z,5.20
2023-04-25T12:48:24.977Z,3.43
2023-04-25T12:50:52.789Z,3.70
2023-04-25T12:53:21.365Z,3.43
2023-04-25T12:55:48.774Z,4.53
2023-04-25T12:58:16.718Z,3.80
2023-04-25T13:00:43.879Z,5.67
2023-04-25T13:03:12.092Z,4.53
2023-04-25T13:05:39.393Z,4.77
2023-04-25T13:08:05.907Z,3.30
2023-04-25T13:10:32.381Z,3.80
2023-04-25T13:12:58.777Z,4.10
2023-04-25T13:15:25.908Z,7.37
2023-04-25T13:17:52.466Z,6.47
2023-04-25T13:20:19.855Z,3.33
2023-04-25T13:22:46.853Z,3.70
2023-04-25T13:25:13.286Z,5.87
2023-04-25T13:27:41.853Z,7.90
2023-04-25T13:30:08.840Z,6.37
2023-04-25T13:32:39.202Z,4.67
2023-04-25T13:35:10.474Z,8.27
2023-04-25T13:37:37.749Z,5.30
2023-04-25T13:40:06.545Z,7.10
2023-04-25T13:42:33.351Z,3.90
2023-04-25T13:44:59.900Z,6.27
2023-04-25T13:47:27.755Z,7.50
2023-04-25T13:49:55.376Z,5.90
2023-04-25T13:52:21.896Z,6.53
2023-04-25T13:54:48.353Z,5.90
2023-04-25T13:57:14.774Z,5.47
2023-04-25T13:59:41.853Z,6.20
2023-04-25T14:02:08.524Z,5.20
2023-04-25T14:04:35.021Z,7.10
2023-04-25T14:07:02.209Z,6.27
2023-04-25T14:09:29.002Z,4.73
2023-04-25T14:11:56.165Z,4.57
2023-04-25T14:14:23.223Z,3.93
2023-04-25T14:16:51.174Z,4.13
2023-04-25T14:19:20.292Z,3.53
2023-04-25T14:21:48.863Z,4.67
2023-04-25T14:24:15.754Z,4.83
2023-04-25T14:26:43.371Z,4.00
2023-04-25T14:29:12.506Z,4.77
2023-04-25T14:31:40.406Z,3.00
2023-04-25T14:34:06.978Z,4.43
2023-04-25T14:36:34.527Z,6.20
2023-04-25T14:39:01.044Z,7.20
2023-04-25T14:41:28.033Z,5.07
2023-04-25T14:43:54.554Z,7.60
2023-04-25T14:46:23.134Z,6.27
2023-04-25T14:48:50.312Z,4.33
2023-04-25T14:51:16.804Z,5.10
2023-04-25T14:53:43.359Z,5.87
2023-04-25T14:56:09.920Z,5.50
2023-04-25T14:58:36.466Z,5.80
2023-04-25T15:01:03.146Z,5.57
2023-04-25T15:03:29.873Z,5.03
2023-04-25T15:05:56.746Z,7.10
2023-04-25T15:08:23.342Z,9.13
2023-04-25T15:10:50.272Z,7.63
2023-04-25T15:13:17.001Z,6.80
2023-04-25T15:15:43.418Z,3.97
2023-04-25T15:18:09.870Z,5.10
2023-04-25T15:20:36.435Z,4.33
2023-04-25T15:23:04.389Z,4.47
2023-04-25T15:25:30.936Z,4.17
2023-04-25T15:27:57.673Z,5.47
2023-04-25T15:30:24.228Z,8.03
2023-04-25T15:32:50.684Z,6.50
2023-04-25T15:35:17.224Z,5.13
2023-04-25T15:37:44.025Z,7.83
2023-04-25T15:40:14.538Z,4.30
2023-04-25T15:42:52.638Z,3.63
2023-04-25T15:45:21.510Z,5.03
2023-04-25T15:47:48.302Z,6.03
2023-04-25T15:50:15.967Z,4.83
2023-04-25T15:52:43.493Z,5.93
2023-04-25T15:55:10.614Z,7.10
2023-04-25T15:57:37.297Z,4.83
2023-04-25T16:00:11.273Z,5.27
2023-04-25T16:02:42.336Z,5.30
2023-04-25T16:05:11.173Z,3.70
2023-04-25T16:07:39.440Z,6.17
2023-04-25T16:10:06.481Z,9.00
2023-04-25T16:12:33.139Z,6.80
2023-04-25T16:14:59.572Z,5.23
2023-04-25T16:17:28.012Z,8.73
2023-04-25T16:19:54.485Z,3.30
2023-04-25T16:22:21.302Z,7.00
2023-04-25T16:24:48.126Z,7.20
2023-04-25T16:27:14.929Z,5.50
2023-04-25T16:29:41.804Z,7.20
2023-04-25T16:32:08.464Z,5.73
2023-04-25T16:34:34.919Z,8.63
2023-04-25T16:37:02.243Z,7.03
2023-04-25T16:39:28.868Z,7.63
2023-04-25T16:41:55.391Z,6.80
2023-04-25T16:44:21.903Z,9.10
2023-04-25T16:46:48.428Z,6.20
2023-04-25T16:49:14.876Z,6.90
2023-04-25T16:51:41.356Z,7.13
2023-04-25T16:54:07.936Z,4.90
2023-04-25T16:56:34.419Z,6.43
2023-04-25T16:59:00.850Z,5.67
2023-04-25T17:01:27.992Z,5.57
2023-04-25T17:03:54.610Z,5.83
2023-04-25T17:06:21.286Z,6.63
2023-04-25T17:08:48.007Z,3.53
2023-04-25T17:11:14.483Z,4.10
2023-04-25T17:13:43.341Z,3.17
2023-04-25T17:16:11.793Z,7.33
2023-04-25T17:18:38.649Z,4.93
2023-04-25T17:21:06.093Z,9.57
2023-04-25T17:23:32.756Z,5.77
2023-04-25T17:25:59.442Z,3.67
2023-04-25T17:28:26.390Z,4.77
2023-04-25T17:30:52.958Z,5.20
2023-04-25T17:33:19.450Z,4.50
2023-04-25T17:35:46.150Z,4.50
2023-04-25T17:38:14.723Z,2.53
2023-04-25T17:40:41.203Z,3.13
2023-04-25T17:43:07.712Z,4.20
2023-04-25T17:45:34.710Z,4.53
2023-04-25T17:48:03.712Z,4.67
2023-04-25T17:50:31.215Z,4.70
2023-04-25T17:52:58.255Z,5.73
2023-04-25T17:55:25.015Z,3.63
2023-04-25T17:57:51.677Z,5.83
2023-04-25T18:00:18.560Z,5.70
2023-04-25T18:02:53.587Z,6.50
2023-04-25T18:05:20.295Z,7.20
2023-04-25T18:07:47.132Z,5.07
2023-04-25T18:10:14.451Z,4.47
2023-04-25T18:12:40.874Z,3.60
2023-04-25T18:15:07.916Z,7.67
2023-04-25T18:17:39.862Z,8.10
2023-04-25T18:20:10.230Z,10.23
2023-04-25T18:22:37.930Z,10.00
2023-04-25T18:25:05.689Z,10.53
2023-04-25T18:27:32.844Z,9.10
2023-04-25T18:29:59.706Z,7.57
2023-04-25T18:32:28.399Z,5.93
2023-04-25T18:34:55.479Z,5.43
2023-04-25T18:37:22.240Z,3.90
2023-04-25T18:39:49.179Z,4.97
2023-04-25T18:42:16.439Z,3.70
2023-04-25T18:44:43.467Z,6.47
2023-04-25T18:47:13.185Z,3.93
2023-04-25T18:49:40.482Z,3.80
2023-04-25T18:52:10.586Z,7.43
2023-04-25T18:54:37.295Z,6.33
2023-04-25T18:57:04.226Z,10.87
2023-04-25T18:59:31.551Z,5.50
2023-04-25T19:01:58.238Z,4.17
2023-04-25T19:04:24.896Z,6.10
2023-04-25T19:06:52.159Z,6.07
2023-04-25T19:09:18.588Z,4.67
2023-04-25T19:11:45.497Z,3.83
2023-04-25T19:14:13.967Z,9.43
2023-04-25T19:16:40.562Z,6.53
2023-04-25T19:19:09.653Z,6.77
2023-04-25T19:21:36.374Z,8.30
2023-04-25T19:24:05.007Z,4.70
2023-04-25T19:26:31.669Z,6.17
2023-04-25T19:29:09.969Z,4.70
2023-04-25T19:31:37.842Z,4.43
2023-04-25T19:34:05.711Z,4.67
2023-04-25T19:36:32.425Z,5.70
2023-04-25T19:39:03.673Z,7.07
2023-04-25T19:41:31.659Z,7.70
2023-04-25T19:44:00.826Z,7.70
2023-04-25T19:46:27.739Z,5.53
2023-04-25T19:48:54.590Z,6.50
2023-04-25T19:51:21.047Z,4.83
2023-04-25T19:53:47.504Z,7.60
2023-04-25T19:56:14.000Z,8.33
2023-04-25T19:58:40.503Z,5.70
2023-04-25T20:01:09.087Z,7.40
2023-04-25T20:03:35.805Z,8.17
2023-04-25T20:06:02.757Z,4.73
2023-04-25T20:08:29.215Z,7.80
2023-04-25T20:10:55.653Z,6.10
2023-04-25T20:13:22.689Z,5.80
2023-04-25T20:15:49.470Z,5.03
2023-04-25T20:18:15.865Z,7.63
2023-04-25T20:20:42.302Z,4.30
2023-04-25T20:23:08.764Z,4.90
2023-04-25T20:25:35.581Z,7.43
2023-04-25T20:28:02.424Z,7.70
2023-04-25T20:30:29.284Z,9.10
2023-04-25T20:32:56.587Z,4.63
2023-04-25T20:35:23.165Z,9.97
2023-04-25T20:37:50.810Z,7.67
2023-04-25T20:40:17.231Z,6.47
2023-04-25T20:42:43.634Z,11.70
2023-04-25T20:45:13.363Z,9.57
2023-04-25T20:47:41.036Z,5.90
2023-04-25T20:50:08.369Z,6.17
2023-04-25T20:52:37.147Z,9.00
2023-04-25T20:55:03.742Z,4.70
2023-04-25T20:57:30.262Z,5.73
2023-04-25T20:59:57.174Z,5.50
2023-04-25T21:02:24.246Z,7.60
2023-04-25T21:04:51.711Z,7.53
2023-04-25T21:07:18.123Z,7.53
2023-04-25T21:09:45.547Z,6.47
2023-04-25T21:12:12.423Z,7.80
2023-04-25T21:14:38.958Z,6.43
2023-04-25T21:17:05.592Z,6.90
2023-04-25T21:19:32.247Z,7.10
2023-04-25T21:21:59.207Z,5.87
2023-04-25T21:24:27.226Z,4.30
2023-04-25T21:26:53.652Z,6.83
2023-04-25T21:29:20.218Z,7.10
2023-04-25T21:31:46.876Z,7.30
2023-04-25T21:34:13.524Z,5.20
2023-04-25T21:36:41.269Z,14.13
2023-04-25T21:39:07.937Z,5.50
2023-04-25T21:41:34.348Z,8.30
2023-04-25T21:44:00.987Z,4.77
2023-04-25T21:46:27.562Z,7.27
2023-04-25T21:48:54.633Z,9.20
2023-04-25T21:51:21.422Z,10.43
2023-04-25T21:53:48.024Z,5.27
2023-04-25T21:56:14.562Z,11.33
2023-04-25T21:58:41.017Z,6.20
2023-04-25T22:01:07.448Z,9.27
2023-04-25T22:03:34.216Z,9.03
2023-04-25T22:06:02.257Z,6.73
2023-04-25T22:08:28.712Z,7.70
2023-04-25T22:10:56.183Z,5.80
2023-04-25T22:13:22.783Z,7.67
2023-04-25T22:15:49.444Z,7.07
2023-04-25T22:18:16.246Z,6.43
2023-04-25T22:20:44.168Z,7.03
2023-04-25T22:23:12.056Z,6.23
2023-04-25T22:25:38.657Z,8.00
2023-04-25T22:28:05.224Z,8.13
2023-04-25T22:30:32.385Z,7.87
2023-04-25T22:32:59.318Z,7.57
2023-04-25T22:35:26.137Z,7.87
2023-04-25T22:37:52.992Z,7.30
2023-04-25T22:40:19.412Z,6.27
2023-04-25T22:42:46.126Z,8.53
2023-04-25T22:45:12.774Z,9.10
2023-04-25T22:47:40.375Z,9.50
2023-04-25T22:50:12.134Z,7.50
2023-04-25T22:52:38.963Z,7.77
2023-04-25T22:55:06.402Z,6.13
2023-04-25T22:57:33.052Z,9.53
2023-04-25T22:59:59.603Z,7.27
2023-04-25T23:02:27.339Z,8.17
2023-04-25T23:04:55.034Z,7.43
2023-04-25T23:07:21.564Z,6.80
2023-04-25T23:09:48.352Z,7.13
2023-04-25T23:12:18.432Z,8.73
2023-04-25T23:14:49.259Z,7.57
2023-04-25T23:17:16.078Z,10.33
2023-04-25T23:19:42.474Z,7.77
2023-04-25T23:22:09.376Z,8.57
2023-04-25T23:24:37.613Z,13.43
2023-04-25T23:27:04.104Z,5.83
2023-04-25T23:29:33.208Z,8.03
2023-04-25T23:32:01.318Z,10.67
2023-04-25T23:34:31.720Z,7.40
2023-04-25T23:37:01.150Z,8.90
2023-04-25T23:39:28.342Z,7.70
2023-04-25T23:41:54.985Z,8.93
2023-04-25T23:44:22.134Z,6.07
2023-04-25T23:46:48.915Z,14.27
2023-04-25T23:49:15.469Z,10.73
2023-04-25T23:51:41.945Z,9.20
2023-04-25T23:54:08.424Z,11.87
2023-04-25T23:56:34.796Z,5.23
2023-04-25T23:59:02.324Z,8.53
